Princess, Kentucky
Current Conditions -  °F | °C
As of 7:51 PM on Monday 26 Jan 2015 (Local Time) from KHTS Reporting Station
Broken Clouds Broken Clouds  
Wind Chill: 26°   Ceiling: 2400
Heat Index: 26°   Visibility: 10mi
Dew Point: 19°   Wind: 3mph
Humidity: 75%   Direction: 290°WNW
Pressure: 29.93"   Gusts: NA
Location:  38.4744°N, 82.6532°W
Report Text: KHTS 270051Z 29003KT 10SM BKN024 M03/M07 A2993 RMK AO2 SLP143 T10331072
Loading
Personal Weather Stations






























Interactive Weather Map New forecast layout! Learn more

10-Day Weather Forecast

Advertisements
Track Severe Weather on mobile